Tiempo atmosférico en la estación meteorológica de Somosierra, Madrid (1450 m.)



Fecha
DESCASC
Temp. máxima en grados centígrados (hora)
DESCASC
Temp. mínima en grados centígrados (hora)
DESCASC
Temp. media en grados centígrados
DESCASC
Racha de viento máxima en m/sg (hora)
DESCASC
Velocidad máxima media en intervalos de 10 minutos(hora)
DESCASC
Precipitaciones diarias en mm
DESCASC
Precipitaciones de 00:00 a 06:00 en mm
DESCASC
Precipitaciones de 06:00 a 12:00 en mm
DESCASC
Precipitaciones de 12:00 a 18:00 en mm
DESCASC
Precipitaciones de 18:00 a 24:00 en mm
DESCASC
16-06-2019 23.2 (18:00) 8.3 (04:00) 15.8 9.17 (15:30) 4.72 (12:10) 0 0 0 0 0
15-06-2019 20.6 (18:20) 4.4 (06:50) 12.5 7.22 (07:20) 2.5 (07:10) 0 0 0 0 0
14-06-2019 19.1 (17:00) 8.2 (02:30) 13.7 11.39 (14:20) 6.67 (14:20) 0 0 0 0 0
13-06-2019 19.8 (18:00) 6.2 (00:00) 13 13.33 (14:50) 6.67 (16:50) 0 0 0 0 0
12-06-2019 16.6 (18:10) 1.5 (00:00) 9.1 8.06 (14:20) 3.61 (20:10) 0 0 0 0 0
11-06-2019 12.5 (18:20) 3.8 (00:00) 8.1 10.83 (16:50) 3.89 (17:40) 5 0 2.2 2.8 0
10-06-2019 18.4 (18:30) 4.5 (00:00) 11.4 9.44 (15:10) 2.5 (19:40) 0 0 0 0 0
09-06-2019 20.8 (16:40) 7.9 (00:00) 14.3 7.78 (18:20) 3.89 (01:00) 0 0 0 0 0
08-06-2019 19.3 (16:40) 3.1 (00:00) 11.2 12.78 (15:50) 6.39 (17:20) 0 0 0 0 0
07-06-2019 14.5 (18:00) 2.3 (00:00) 8.4 11.39 (00:30) 6.39 (00:30) 6.2 6 0.2 0 0
06-06-2019 15.5 (17:10) 1.8 (00:00) 8.6 17.78 (16:20) 8.89 (18:10) 0 0 0 0 0
05-06-2019 14.3 (19:00) 3.4 (00:00) 8.9 9.72 (10:00) 3.33 (08:20) 7 0.2 6.8 0 0
04-06-2019 21 (14:30) 10.4 (00:00) 15.7 11.11 (14:40) 6.11 (14:20) 0 0 0 0 0
03-06-2019 25.6 (18:50) 11.9 (00:00) 18.8 8.89 (16:00) 4.44 (16:00) 0 0 0 0 0
02-06-2019 26 (16:20) 11.3 (00:00) 18.7 12.5 (20:10) 5.28 (20:10) 2.4 0 0 0 2.4
01-06-2019 27.9 (18:20) 10.2 (00:00) 19 6.39 (15:50) 3.06 (10:50) 0 0 0 0 0
31-05-2019 26.3 (18:50) 9.8 (00:00) 18 5.56 (03:50) 3.61 (03:50) 0 0 0 0 0
30-05-2019 24.1 (17:50) 5.9 (00:00) 15 8.33 (17:30) 2.5 (11:40) 0 0 0 0 0
29-05-2019 18.1 (16:50) 1.7 (00:00) 9.9 11.39 (02:50) 4.17 (05:20) 0 0 0 0 0
28-05-2019 15.8 (15:40) 4.4 (00:00) 10.1 12.5 (18:10) 4.72 (18:50) 0 0 0 0 0
27-05-2019 19.4 (15:10) 7.2 (00:00) 13.3 9.44 (19:30) 3.06 (18:10) 0 0 0 0 0
26-05-2019 18.4 (18:00) 2.1 (00:00) 10.2 11.11 (17:20) 4.17 (15:40) 0 0 0 0 0
25-05-2019 17.5 (18:20) 4.2 (00:00) 10.8 10.28 (16:50) 3.06 (14:00) 0 0 0 0 0
24-05-2019 15.5 (17:00) 5.5 (00:00) 10.5 12.22 (20:30) 3.89 (18:20) 1 0 0.6 0.4 0
23-05-2019 20.2 (19:50) 9.3 (00:00) 14.8 8.06 (16:30) 3.61 (16:30) 0 0 0 0 0
22-05-2019 21.3 (17:40) 5.9 (00:00) 13.6 7.78 (14:50) 1.94 (15:30) 0 0 0 0 0
21-05-2019 17.6 (18:40) 5.3 (06:20) 11.5 5.28 (13:50) 1.39 (12:30) 0 0 0 0 0

Gráficas

Temp. máximas Temp. mínimas Temp. medias Precipitaciones Rachas de viento máximas Velocidades máximas media en intervalos de 10 minutos

Datos horarios

Fecha y hora oficial Temperatura (ºC) Velocidad del viento (km/h) Dirección del viento Racha (km/h) Dirección de racha Precipitación (mm) Presión (hPa) Tendencia (hPa) Humedad (%)
2019-06-19 23:00:00 14.3 2 Norte 12 Nordeste 0 856.9 1.2 63
2019-06-19 22:00:00 15.8 2 Norte 15 Oeste 0 856.5 0.9 59
2019-06-19 21:00:00 17.5 6 Noroeste 20 Noroeste 0 856.1 0.6 53
2019-06-19 20:00:00 19.1 6 Oeste 20 Noroeste 0 855.7 0 50
2019-06-19 19:00:00 19.1 2 Sudoeste 17 Sudeste 0 855.6 -0.3 52
2019-06-19 18:00:00 18.7 4 Sur 17 Sur 0 855.5 -0.5 54
2019-06-19 17:00:00 18.9 5 Sur 19 Sur 0 855.7 -0.6 54
2019-06-19 16:00:00 19.5 11 Sur 27 Sur 0 855.9 -0.5 53
2019-06-19 15:00:00 18.7 11 Sur 23 Sudoeste 0 856 0 54
2019-06-19 14:00:00 19.5 4 Norte 17 Norte 0 856.3 0.1 59
2019-06-19 13:00:00 17 5 Noroeste 17 Norte 0 856.4 0.4 63
2019-06-19 12:00:00 17.3 5 Norte 16 Norte 0 856 0.1 66
2019-06-19 11:00:00 15.6 2 Nordeste 12 Noroeste 0 856.2 0.3 70
2019-06-19 10:00:00 14.7 3 Norte 14 Norte 0 856 0.2 74
2019-06-19 09:00:00 11.4 0 Calma 20 Norte 0 855.9 0.5 86
2019-06-19 08:00:00 10.4 2 Norte 15 Noroeste 0 855.9 0.6 90
2019-06-19 07:00:00 10.3 3 Noroeste 15 Noroeste 0 855.8 0.4 93
2019-06-19 06:00:00 10.4 0 Calma 15 Norte 0 855.4 -0.3 93
2019-06-19 05:00:00 10.3 0 Calma 10 Nordeste 0 855.3 -0.8 91
2019-06-19 04:00:00 11.5 2 Sudeste 9 Este 0 855.4 -0.8 84
2019-06-19 03:00:00 11.1 3 Noroeste 9 Oeste 0 855.7 -0.5 73
2019-06-19 02:00:00 11.8 0 Calma 8 Sudeste 0 856.1 0 68
2019-06-19 01:00:00 13.5 4 Sudeste 10 Sudeste 0 856.2 0.8 61
2019-06-19 00:00:00 13.1 3 Sudeste 11 Sur 0 856.2 0.6 58
2019-06-18 23:00:00 14.1 5 Sudeste 11 Este 0 856.1 1 49
2019-06-18 22:00:00 16.3 0 Calma 20 Sudoeste 0 855.4 0.6 42
2019-06-18 21:00:00 19.1 6 Sur 31 Sur 0 855.6 0.9 30
2019-06-18 20:00:00 20.9 13 Sur 33 Sur 0 855.1 0.2 28
2019-06-18 19:00:00 22 15 Sur 40 Sur 0 854.8 -0.4 25
2019-06-18 18:00:00 21.6 26 Sur 44 Sur 0 854.7 -0.5 26
2019-06-18 17:00:00 22.2 22 Sur 43 Sur 0 854.9 -0.5 26
2019-06-18 16:00:00 22.2 22 Sur 44 Sur 0 855.2 0 26
2019-06-18 15:00:00 20.9 23 Sur 47 Sur 0 855.2 -0.5 28
2019-06-18 14:00:00 20.7 23 Sur 47 Sur 0 855.4 -0.1 29
2019-06-18 13:00:00 19.9 27 Sur 44 Sur 0 855.2 -0.4 34
2019-06-18 12:00:00 19 22 Sur 40 Sur 0 855.7 0 36
2019-06-18 11:00:00 18.4 20 Sur 41 Sur 0 855.5 0.3 39
2019-06-18 10:00:00 17.5 19 Sur 35 Sur 0 855.6 0.6 40
2019-06-18 09:00:00 16.3 18 Sur 31 Sur 0 855.7 0.5 40
2019-06-18 08:00:00 14.3 12 Sur 30 Sur 0 855.2 0.5 42
2019-06-18 07:00:00 12.4 12 Sur 28 Sur 0 855 -0.2 45
2019-06-18 06:00:00 14.6 17 Sur 28 Sur 0 855.2 -0.9 42
2019-06-18 05:00:00 15.6 12 Sur 24 Sur 0 854.7 -2.5 40
2019-06-18 04:00:00 15 6 Sur 17 Sudeste 0 855.2 -1.8 42
2019-06-18 03:00:00 15.1 0 Calma 9 Sudeste 0 856.1 -1.3 42
2019-06-18 02:00:00 14.1 0 Calma 7 Noroeste 0 857.2 0.1 42
2019-06-18 01:00:00 15.2 2 Norte 13 Noroeste 0 857 0.3 41
2019-06-18 00:00:00 16.6 0 Calma 9 Norte 0 857.4 1 38
2019-06-17 23:00:00 16.7 3 Norte 15 Noroeste 0 857.1 0.7 38
2019-06-17 22:00:00 17.2 0 Calma 10 Sudeste 0 856.7 0.4 38
2019-06-17 21:00:00 19.2 6 Sudeste 15 Sur 0 856.4 -0.3 35
2019-06-17 20:00:00 21.1 9 Sur 27 Sur 0 856.4 -0.4 30
2019-06-17 19:00:00 23.3 13 Sur 33 Sur 0 856.3 -1 29
2019-06-17 18:00:00 23 18 Sur 36 Sur 0 856.7 -1.1 29
2019-06-17 17:00:00 23.2 15 Sur 37 Sur 0 856.8 -1.2 30
2019-06-17 16:00:00 23.1 14 Sur 36 Sur 0 857.3 -1.3 32
2019-06-17 15:00:00 22.3 14 Sur 34 Sur 0 857.8 -1 33
2019-06-17 14:00:00 21.9 15 Sur 36 Sur 0 858 -0.7 34
2019-06-17 13:00:00 21.3 14 Sur 32 Sur 0 858.6 -0.1 35
2019-06-17 12:00:00 19.8 13 Sur 21 Sur 0 858.8 0.1 39
2019-06-17 11:00:00 19.2 7 Sur 14 Sudeste 0 858.7 0.4 42
2019-06-17 10:00:00 17.5 6 Sur 10 Sur 0 858.7 0.5 42
2019-06-17 09:00:00 15.1 6 Sur 12 Sur 0 858.7 0.3 49
2019-06-17 08:00:00 11.1 0 Calma 5 Este 0 858.3 -0.1 50
2019-06-17 07:00:00 10.8 0 Calma 8 Sudeste 0 858.2 -0.5 48
2019-06-17 06:00:00 10.4 2 Sudeste 9 Sudeste 0 858.4 -0.3 49
2019-06-17 05:00:00 10.6 4 Sur 7 Sudeste 0 858.4 -0.5 47
2019-06-17 04:00:00 11.2 4 Sudeste 6 Sudeste 0 858.7 -0.6 42
2019-06-17 03:00:00 12.5 0 Calma 10 Este 0 858.7 -0.8 41
2019-06-17 02:00:00 14.3 2 Norte 11 Nordeste 0 858.9 -0.3 38
2019-06-17 01:00:00 14.1 3 Norte 10 Este 0 859.3 0.6 37
2019-06-17 00:00:00 14 4 Sudoeste 11 Este 0 859.5 1.1 38
2019-06-16 23:00:00 14.7 4 Sur 12 Sudeste 0 859.2 0.9 35
2019-06-16 22:00:00 15.5 4 Sudeste 13 Sur 0 858.7 0.6 34
2019-06-16 21:00:00 18.4 7 Sur 20 Sur 0 858.4 0.1 31
2019-06-16 20:00:00 19.8 8 Sur 23 Sur 0 858.3 -0.2 30
2019-06-16 19:00:00 20.9 10 Sur 22 Sur 0 858.1 -0.7 30
2019-06-16 18:00:00 22.7 5 Sudoeste 24 Sur 0 858.3 -1 30
2019-06-16 17:00:00 22 13 Sur 30 Sur 0 858.5 -1 30
2019-06-16 16:00:00 21.1 15 Sur 33 Sur 0 858.8 -0.9 31
2019-06-16 15:00:00 20.8 12 Sur 28 Sudoeste 0 859.3 -0.2 34
2019-06-16 14:00:00 19.4 14 Sur 28 Sur 0 859.5 -0.3 35
2019-06-16 13:00:00 18.7 14 Sur 30 Sur 0 859.7 0 38
2019-06-16 12:00:00 17.9 15 Sur 31 Sur 0 859.5 0 39
2019-06-16 11:00:00 16.4 15 Sur 25 Sur 0 859.8 0.8 41
2019-06-16 10:00:00 14.9 9 Sur 18 Sur 0 859.7 1.1 49
2019-06-16 09:00:00 13 6 Sur 11 Sur 0 859.5 0.9 54
2019-06-16 08:00:00 10.4 6 Sudeste 15 Sur 0 859 0.5 54
2019-06-16 07:00:00 10 7 Sur 15 Sudeste 0 858.6 -0.3 54
2019-06-16 06:00:00 9.9 9 Sur 17 Sudeste 0 858.6 -0.8 56
2019-06-16 05:00:00 9.4 7 Sur 13 Sur 0 858.5 -1.2 56
2019-06-16 04:00:00 8.8 4 Sudeste 9 Sudeste 0 858.9 -1.1 56
2019-06-16 03:00:00 9.9 5 Sudeste 12 Sudeste 0 859.4 -0.4 53
2019-06-16 02:00:00 9.4 0 Calma 9 Este 0 859.7 -0.2 54
2019-06-16 01:00:00 9 2 Este 6 Norte 0 860 0.5 54
2019-06-16 00:00:00 9.7 2 Norte 6 Norte 0 859.8 0.7 51
2019-06-15 23:00:00 10.5 3 Norte 5 Noroeste 0 859.9 1.3 48
2019-06-15 22:00:00 12.2 2 Norte 7 Norte 0 859.5 1.2 42
2019-06-15 21:00:00 16.5 0 Calma 13 Norte 0 859.1 0.3 38
2019-06-15 20:00:00 18.9 3 Noroeste 20 Norte 0 858.6 -0.1 37
2019-06-15 19:00:00 19.1 5 Norte 18 Oeste 0 858.3 -0.3 38
2019-06-15 18:00:00 19.5 6 Oeste 17 Oeste 0 858.8 0.1 40
2019-06-15 17:00:00 18.9 4 Norte 18 Noroeste 0 858.7 -0.1 42
2019-06-15 16:00:00 17.3 4 Norte 19 Norte 0 858.6 -0.2 42
2019-06-15 15:00:00 17 5 Norte 22 Oeste 0 858.7 -0.1 46
2019-06-15 14:00:00 15.6 5 Norte 21 Noroeste 0 858.8 0.2 49
2019-06-15 13:00:00 14.6 6 Norte 20 Norte 0 858.8 0.5 56
2019-06-15 12:00:00 13.1 5 Norte 18 Norte 0 858.8 0.9 60
2019-06-15 11:00:00 10.9 4 Norte 13 Norte 0 858.6 0.9 65
2019-06-15 10:00:00 8.5 4 Norte 12 Nordeste 0 858.3 1 76
2019-06-15 09:00:00 5.9 5 Norte 18 Nordeste 0 857.9 1 90
2019-06-15 08:00:00 4.7 4 Nordeste 26 Este 0 857.7 1.1 93
2019-06-15 07:00:00 4.8 0 Calma 17 Nordeste 0 857.3 0.4 91
2019-06-15 06:00:00 4.9 3 Norte 15 Noroeste 0 856.9 0.3 89
2019-06-15 05:00:00 5.3 3 Norte 12 Norte 0 856.6 -0.1 84
2019-06-15 04:00:00 5.7 3 Norte 19 Noroeste 0 856.9 0.6 80
2019-06-15 03:00:00 6.5 5 Norte 18 Nordeste 0 856.6 0.7 73
2019-06-15 02:00:00 6.6 3 Norte 20 Noroeste 0 856.7 1.1 63
2019-06-15 01:00:00 8.5 5 Norte 22 Noroeste 0 856.3 1.4 56
2019-06-15 00:00:00 9.4 5 Norte 20 Norte 0 855.9 2 53
2019-06-14 23:00:00 10.2 4 Norte 26 Noroeste 0 855.6 2.3 49
2019-06-14 22:00:00 11.5 6 Norte 22 Norte 0 854.9 2.3 43
2019-06-14 21:00:00 14.8 3 Noroeste 28 Sudoeste 0 853.9 1.5 37
2019-06-14 20:00:00 17.3 11 Oeste 30 Sur 0 853.3 0.9 33
2019-06-14 19:00:00 15.6 8 Sur 31 Sur 0 852.6 0.3 35
2019-06-14 18:00:00 16 13 Sur 33 Sur 0 852.4 -0.1 34
2019-06-14 17:00:00 19.1 17 Sur 33 Sur 0 852.4 0.3 32
2019-06-14 16:00:00 18.2 18 Sur 40 Sur 0 852.3 0.3 34
2019-06-14 15:00:00 17.8 18 Sur 41 Sur 0 852.5 0.4 31
2019-06-14 14:00:00 17.6 18 Sur 38 Sur 0 852.1 -0.1 34
2019-06-14 13:00:00 16.8 20 Sur 36 Sur 0 852 -0.2 33
2019-06-14 12:00:00 16.2 16 Sur 32 Sur 0 852.1 0.2 42
2019-06-14 11:00:00 15 13 Sur 29 Sur 0 852.2 0.8 42
2019-06-14 10:00:00 13.9 13 Sur 22 Sur 0 852.2 0.8 42
2019-06-14 09:00:00 12.6 8 Sur 14 Sur 0 851.9 0.7 42
2019-06-14 08:00:00 9.7 6 Sur 16 Sudeste 0 851.4 -0.1 47
2019-06-14 07:00:00 10.7 9 Sudeste 21 Sudeste 0 851.4 -0.2 42
2019-06-14 06:00:00 10.2 11 Sudeste 19 Sur 0 851.2 -0.7 42
2019-06-14 05:00:00 9.9 5 Sur 14 Sur 0 851.5 -0.3 42
2019-06-14 04:00:00 8.9 5 Sur 11 Sur 0 851.6 -1.1 42
2019-06-14 03:00:00 8.9 5 Sur 8 Sudeste 0 851.9 -1 45
2019-06-14 02:00:00 8.8 0 Calma 16 Este 0 851.8 -0.4 42
2019-06-14 01:00:00 10.4 0 Calma 11 Nordeste 0 852.7 1 39
2019-06-14 00:00:00 11.3 2 Norte 12 Nordeste 0 852.9 1.8 39
2019-06-13 23:00:00 12 2 Norte 10 Nordeste 0 852.2 1.8 38
2019-06-13 22:00:00 13.5 4 Sur 11 Sur 0 851.7 1.4 37
2019-06-13 21:00:00 15.2 5 Sur 17 Sudoeste 0 851.1 0.6 35
2019-06-13 20:00:00 16.9 9 Sur 26 Sudoeste 0 850.4 -0.1 31
2019-06-13 19:00:00 19.3 15 Sur 35 Sudoeste 0 850.3 -0.3 30
2019-06-13 18:00:00 19.5 17 Sur 39 Sur 0 850.5 -0.4 30
2019-06-13 17:00:00 19.2 18 Sur 45 Sur 0 850.5 -0.8 34
2019-06-13 16:00:00 18.6 23 Sur 43 Sur 0 850.6 -0.8 39
2019-06-13 15:00:00 17 22 Sur 48 Sur 0 850.9 -1.1 41
2019-06-13 14:00:00 15.9 21 Sur 42 Sur 0 851.3 -0.5 45
2019-06-13 13:00:00 15.3 18 Sur 34 Sur 0 851.4 -0.1 55
2019-06-13 12:00:00 13.5 19 Sur 34 Sur 0 852 0.4 64
2019-06-13 11:00:00 11.5 18 Sur 34 Sur 0 851.8 0.7 75
2019-06-13 10:00:00 10 19 Sur 31 Sur 0 851.5 0.5 83
2019-06-13 09:00:00 8.7 10 Sur 21 Sudoeste 0 851.6 1.1 88
2019-06-13 08:00:00 8.2 14 Sur 23 Sur 0 851.1 0.9 89
2019-06-13 07:00:00 7.2 11 Sur 19 Sur 0 851 0.9 91
2019-06-13 06:00:00 7.1 11 Sur 33 Sur 0 850.5 -0.5 90
2019-06-13 05:00:00 7.9 14 Sur 27 Sur 0 850.2 -0.6 87
2019-06-13 04:00:00 8.2 17 Sur 29 Sur 0 850.1 -1.2 76
2019-06-13 03:00:00 7.2 12 Sur 26 Sur 0 851 -0.6 45
2019-06-13 02:00:00 8.6 6 Sudoeste 11 Sudoeste 0 850.8 -0.9 41
2019-06-13 01:00:00 8.3 5 Sur 10 Sudeste 0 851.3 -0.2 41
2019-06-13 00:00:00 8.3 0 Calma 10 Oeste 0 851.6 0.3 40
2019-06-12 23:00:00 9.3 5 Sudoeste 11 Sudeste 0 851.7 0.4 38
2019-06-12 22:00:00 10.4 4 Sudeste 11 Sudeste 0 851.5 0.1 38
2019-06-12 21:00:00 13.7 3 Sur 23 Sur 0 851.3 -0.4 37
2019-06-12 20:00:00 14.8 9 Sur 22 Sur 0 851.3 -0.6 34
2019-06-12 19:00:00 14.6 8 Sur 26 Sudoeste 0 851.4 -1.1 35
2019-06-12 18:00:00 16.4 8 Sudeste 24 Sur 0 851.7 -1 37
2019-06-12 17:00:00 14.5 12 Sur 26 Sur 0 851.9 -1.3 38
2019-06-12 16:00:00 14.1 9 Sur 27 Sudoeste 0 852.5 -0.6 42
2019-06-12 15:00:00 12.3 8 Sudeste 29 Sur 0 852.7 -0.7 45
2019-06-12 14:00:00 12.5 11 Sur 23 Sur 0 853.2 -0.3 47
2019-06-12 13:00:00 12.6 11 Sur 25 Sudoeste 0 853.1 -0.2 49
2019-06-12 12:00:00 11.7 9 Sur 24 Sudoeste 0 853.4 0.2 50
2019-06-12 11:00:00 10.4 10 Sur 21 Sur 0 853.5 0.6 53
2019-06-12 10:00:00 7.4 2 Norte 9 Norte 0 853.3 0.2 72
2019-06-12 09:00:00 4.2 0 Calma 10 Nordeste 0 853.2 0.3 80
2019-06-12 08:00:00 2.1 0 Calma 14 Noroeste 0 852.9 0 88
2019-06-12 07:00:00 1.8 2 Oeste 12 Oeste 0 853.1 0.3 85
2019-06-12 06:00:00 2.1 0 Calma 14 Oeste 0 852.9 -0.5 83
2019-06-12 05:00:00 2.1 5 Oeste 12 Oeste 0 852.9 -0.5 83
2019-06-12 04:00:00 2.5 0 Calma 2 Este 0 852.8 -1.3 80
2019-06-12 03:00:00 2.4 0 Calma 4 Sudeste 0 853.4 -0.5 76
2019-06-12 02:00:00 2.6 2 Sur 5 Sudeste 0 853.4 -0.6 75
2019-06-12 01:00:00 3.4 0 Calma 5 Sudeste 0 854.1 0.1 72
2019-06-12 00:00:00 4 0 Calma 7 Nordeste 0 853.9 0.3 68
2019-06-11 23:00:00 4.5 0 Calma 8 Noroeste 0 854 0.5 63
2019-06-11 22:00:00 6 3 Noroeste 19 Noroeste 0 854 0.8 56
2019-06-11 21:00:00 8.7 6 Norte 28 Noroeste 0 853.6 0.2 45
2019-06-11 20:00:00 10.8 9 Norte 33 Norte 0 853.5 -0.1 42
2019-06-11 19:00:00 10.8 10 Norte 34 Norte 0 853.2 -0.1 41
2019-06-11 18:00:00 11.5 11 Norte 32 Norte 0 853.4 0.3 40
2019-06-11 17:00:00 9.4 10 Norte 39 Norte 0 853.6 0.3 48
2019-06-11 16:00:00 11.2 9 Norte 32 Norte 0 853.3 0.2 47
2019-06-11 15:00:00 9.7 10 Norte 28 Norte 0 853.1 -0.2 59
2019-06-11 14:00:00 7 8 Norte 28 Norte 2.6 853.3 0.5 83
2019-06-11 13:00:00 6.9 8 Norte 28 Norte 0.2 853.1 0.9 84
2019-06-11 12:00:00 5.3 9 Norte 23 Nordeste 0 853.3 1.4 92
2019-06-11 11:00:00 4.1 8 Norte 30 Noroeste 0.2 852.8 1.1 99
2019-06-11 10:00:00 4.3 10 Norte 27 Noroeste 0.6 852.2 0.8 99
2019-06-11 09:00:00 4.4 8 Norte 22 Noroeste 0.6 851.9 0.1 99
2019-06-11 08:00:00 4.4 4 Noroeste 19 Noroeste 0.4 851.7 -0.5 99
2019-06-11 07:00:00 4.8 6 Norte 19 Norte 0.4 851.4 -0.9 99
2019-06-11 06:00:00 6 3 Norte 15 Noroeste 0 851.8 -1 89
2019-06-11 05:00:00 6.9 2 Norte 12 Norte 0 852.2 -1.2 76
2019-06-11 04:00:00 8.4 4 Norte 20 Norte 0 852.3 -1.2 63
2019-06-11 03:00:00 10 3 Sudoeste 17 Sudoeste 0 852.8 -1.1 51
2019-06-11 02:00:00 10.3 3 Sur 23 Sudoeste 0 853.4 -0.2 49
2019-06-11 01:00:00 10.6 6 Sur 20 Noroeste 0 853.5 -0.4 47
2019-06-11 00:00:00 9.5 2 Norte 7 Norte 0 853.9 -0.3 52
2019-06-10 23:00:00 9 4 Norte 11 Noroeste 0 853.6 -0.3 56
2019-06-10 22:00:00 10.4 3 Norte 16 Noroeste 0 853.9 -0.5 50
2019-06-10 21:00:00 14.6 3 Noroeste 21 Noroeste 0 854.2 -0.7 36
2019-06-10 20:00:00 16.3 6 Noroeste 28 Norte 0 853.9 -1.4 34
2019-06-10 19:00:00 17.6 4 Noroeste 32 Norte 0 854.4 -1.2 36
2019-06-10 18:00:00 16.4 3 Noroeste 23 Norte 0 854.9 -1.1 42
2019-06-10 17:00:00 18.1 7 Oeste 26 Norte 0 855.3 -1.2 41
2019-06-10 16:00:00 16.4 5 Noroeste 34 Norte 0 855.6 -1.1 42
2019-06-10 15:00:00 15.2 5 Norte 28 Noroeste 0 856 -1 46
2019-06-10 14:00:00 14.1 8 Norte 32 Norte 0 856.5 -0.4 52
2019-06-10 13:00:00 13.3 6 Norte 28 Norte 0 856.7 0 58
2019-06-10 12:00:00 12.2 8 Norte 22 Noroeste 0 857 0.3 70
2019-06-10 11:00:00 10 4 Norte 22 Norte 0 856.9 0.7 80
2019-06-10 10:00:00 7.3 6 Norte 18 Norte 0 856.7 0.7 92
2019-06-10 09:00:00 8 5 Norte 18 Nordeste 0 856.7 0.4 89
2019-06-10 08:00:00 5.8 4 Norte 14 Norte 0 856.2 0.1 95
2019-06-10 07:00:00 4.5 3 Norte 11 Nordeste 0 856 -0.6 95
2019-06-10 06:00:00 5.3 0 Calma 17 Norte 0 856.3 -0.6 93
2019-06-10 05:00:00 6.3 5 Norte 16 Norte 0 856.1 -1.2 93
2019-06-10 04:00:00 7 5 Norte 15 Norte 0 856.6 -1 95
2019-06-10 03:00:00 6.5 5 Norte 13 Norte 0 856.9 -0.6 95
2019-06-10 02:00:00 7.3 4 Norte 13 Norte 0 857.3 -0.1 89
2019-06-10 01:00:00 8.2 4 Norte 18 Noroeste 0 857.6 1.1 70
2019-06-10 00:00:00 10.3 5 Norte 21 Norte 0 857.5 1.5 52
2019-06-09 23:00:00 11.9 5 Norte 22 Noroeste 0 857.4 1.8 45
2019-06-09 22:00:00 13.9 4 Noroeste 19 Norte 0 856.5 1 39
2019-06-09 21:00:00 15.3 4 Norte 21 Oeste 0 856 0.3 38
2019-06-09 20:00:00 16.6 4 Noroeste 23 Noroeste 0 855.6 -0.1 37
2019-06-09 19:00:00 17.4 4 Oeste 28 Noroeste 0 855.5 -0.5 35
2019-06-09 18:00:00 20.1 9 Oeste 26 Oeste 0 855.7 -0.6 34
2019-06-09 17:00:00 19 10 Oeste 26 Oeste 0 855.7 -0.8 34
2019-06-09 16:00:00 19 4 Noroeste 22 Oeste 0 856 -0.9 37
2019-06-09 15:00:00 17.6 6 Norte 23 Noroeste 0 856.3 -0.5 39
2019-06-09 14:00:00 18.2 3 Noroeste 21 Oeste 0 856.5 -0.5 41
2019-06-09 13:00:00 16.5 6 Norte 18 Noroeste 0 856.9 0.3 42
2019-06-09 12:00:00 15 4 Noroeste 17 Oeste 0 856.8 0.2 49
2019-06-09 11:00:00 15.3 6 Sur 18 Sur 0 857 0.5 56
2019-06-09 10:00:00 14 10 Sur 17 Sur 0 856.6 0 71
2019-06-09 09:00:00 11.5 8 Sur 14 Sur 0 856.6 -0.1 84
2019-06-09 08:00:00 8.5 6 Sur 11 Sudeste 0 856.5 -0.1 95
2019-06-09 07:00:00 8 7 Sur 14 Sur 0 856.6 -0.6 95
2019-06-09 06:00:00 8.6 7 Sur 14 Sur 0 856.7 -0.7 93
2019-06-09 05:00:00 8.3 7 Sur 12 Sur 0 856.6 -1.1 93
2019-06-09 04:00:00 9.3 8 Sur 19 Sur 0 857.2 -0.9 89
2019-06-09 03:00:00 10.4 11 Sur 22 Sur 0 857.4 -0.8 84
2019-06-09 02:00:00 11.5 10 Sur 25 Sur 0 857.7 -0.5 76
2019-06-09 01:00:00 12.3 14 Sur 24 Sur 0 858.1 0.3 73
2019-06-09 00:00:00 12.5 6 Sur 20 Sur 0 858.2 1.2 68
2019-06-08 23:00:00 14 8 Sur 22 Sur 0 858.2 1.1 61
2019-06-08 22:00:00 15 8 Sur 21 Sur 0 857.8 1.1 50
2019-06-08 21:00:00 16.2 6 Sudeste 22 Sur 0 857 -0.2 38
2019-06-08 20:00:00 17.5 11 Sur 37 Sur 0 857.1 -0.3 38
2019-06-08 19:00:00 18 17 Sur 36 Sur 0 856.7 -1.1 42
2019-06-08 18:00:00 18.5 17 Sur 40 Sur 0 857.2 -1.4 42
2019-06-08 17:00:00 18.5 22 Sur 43 Sur 0 857.4 -1.6 41
2019-06-08 16:00:00 18.6 22 Sur 46 Sur 0 857.8 -1.5 42
2019-06-08 15:00:00 17.9 17 Sur 38 Sur 0 858.6 -0.9 42
2019-06-08 14:00:00 16.7 19 Sur 44 Sur 0 859 -0.6 46
2019-06-08 13:00:00 16.2 18 Sur 38 Sudoeste 0 859.3 -0.6 42
2019-06-08 12:00:00 14.9 17 Sur 32 Sur 0 859.5 -0.2 43
2019-06-08 11:00:00 13.4 16 Sur 29 Sur 0 859.6 0.1 46
2019-06-08 10:00:00 11.3 10 Sur 22 Sudoeste 0 859.9 0.5 52
2019-06-08 09:00:00 9.4 12 Sur 19 Sur 0 859.7 0.5 54
2019-06-08 08:00:00 5.5 8 Sur 15 Sur 0 859.5 0 63
2019-06-08 07:00:00 4.7 5 Sur 15 Sur 0 859.4 -0.3 64
2019-06-08 06:00:00 4.1 5 Sur 9 Sudoeste 0 859.2 -0.6 68
2019-06-08 05:00:00 3.1 0 Calma 7 Nordeste 0 859.5 -0.5 69
2019-06-08 04:00:00 3.3 3 Nordeste 5 Nordeste 0 859.7 -0.3 69
2019-06-08 03:00:00 3.3 2 Norte 6 Norte 0 859.8 -0.1 70
2019-06-08 02:00:00 3.6 2 Norte 6 Norte 0 860 0.3 68
2019-06-08 01:00:00 4 2 Norte 6 Noroeste 0 860 0.6 65
2019-06-08 00:00:00 4.3 3 Norte 6 Norte 0 859.9 1.1 63
2019-06-07 23:00:00 5.4 3 Norte 9 Nordeste 0 859.7 1.1 59
2019-06-07 22:00:00 7 0 Calma 8 Oeste 0 859.4 1.3 52
2019-06-07 21:00:00 10.4 3 Norte 13 Noroeste 0 858.8 1.2 42
2019-06-07 20:00:00 13.3 5 Oeste 18 Oeste 0 858.6 1.1 40
2019-06-07 19:00:00 13.3 6 Oeste 21 Noroeste 0 858.1 1.3 41
2019-06-07 18:00:00 14.2 4 Oeste 24 Oeste 0 857.6 0.9 42
2019-06-07 17:00:00 12 6 Oeste 21 Sudoeste 0 857.5 1.2 45
2019-06-07 16:00:00 10.5 3 Norte 24 Oeste 0 856.8 1.2 50
2019-06-07 15:00:00 9.5 6 Noroeste 23 Sudoeste 0 856.7 1.3 55
2019-06-07 14:00:00 8.6 8 Oeste 25 Oeste 0 856.3 1.8 59
2019-06-07 13:00:00 8.5 3 Oeste 28 Norte 0 855.6 1.8 64
2019-06-07 12:00:00 6.6 6 Oeste 32 Sudoeste 0 855.4 2.4 74
2019-06-07 11:00:00 4.4 7 Oeste 31 Noroeste 0.2 854.5 2.4 84
2019-06-07 10:00:00 3.7 4 Noroeste 24 Oeste 0 853.8 2.1 91
2019-06-07 09:00:00 2.7 6 Noroeste 27 Noroeste 0 853 1.6 95
2019-06-07 08:00:00 2.4 4 Noroeste 21 Oeste 0 852.1 2 96
2019-06-07 07:00:00 2.5 0 Calma 21 Sudeste 0 851.7 1.7 97
2019-06-07 06:00:00 2.5 5 Sudoeste 30 Oeste 0 851.4 1.8 92
2019-06-07 05:00:00 3.2 10 Sudoeste 35 Noroeste 0.4 850.1 0.9 94
2019-06-07 04:00:00 3 9 Oeste 39 Oeste 0.4 850 1.7 97
2019-06-07 03:00:00 4.2 0 Calma 28 Noroeste 2.2 849.6 1 98
2019-06-07 02:00:00 6.3 5 Noroeste 33 Sur 3 849.2 0.5 91
2019-06-07 01:00:00 10.2 16 Sur 41 Sur 0 848.3 0.2 57
2019-06-07 00:00:00 11.5 23 Sur 47 Sur 0 848.6 0.1 45
2019-06-06 23:00:00 11.7 25 Sur 46 Sur 0 848.7 0.5 42
2019-06-06 22:00:00 11.7 22 Sur 49 Sur 0 848.1 -0.3 42
2019-06-06 21:00:00 12.4 24 Sur 51 Sur 0 848.5 -0.2 39
2019-06-06 20:00:00 14.2 31 Sur 55 Sur 0 848.2 -1.3 35
2019-06-06 19:00:00 14.9 27 Sur 54 Sur 0 848.4 -1.5 33
2019-06-06 18:00:00 14.9 31 Sur 54 Sur 0 848.7 -1.8 33
2019-06-06 17:00:00 15.4 28 Sur 64 Sur 0 849.5 -1.4 31
2019-06-06 16:00:00 14.3 27 Sur 55 Sur 0 849.9 -1.1 33
2019-06-06 15:00:00 14.1 28 Sur 51 Sur 0 850.5 -0.9 34
2019-06-06 14:00:00 13.3 27 Sur 51 Sur 0 850.9 -0.6 37
2019-06-06 13:00:00 12.2 25 Sur 48 Sur 0 851 -1 41
2019-06-06 12:00:00 11 22 Sur 41 Sur 0 851.4 -0.6 50
2019-06-06 11:00:00 9.9 19 Sur 36 Sur 0 851.5 -0.8 55
2019-06-06 10:00:00 8.8 17 Sur 29 Sur 0 852 -0.4 63
2019-06-06 09:00:00 6.6 10 Sur 16 Sur 0 852 -0.5 72
2019-06-06 08:00:00 3.7 4 Sur 9 Sudeste 0 852.3 -0.6 82
2019-06-06 07:00:00 2.2 0 Calma 5 Norte 0 852.4 -0.7 86
2019-06-06 06:00:00 2.2 2 Norte 6 Norte 0 852.5 -0.8 82
2019-06-06 05:00:00 3.3 0 Calma 11 Nordeste 0 852.9 -0.3 76
2019-06-06 04:00:00 4.3 0 Calma 10 Norte 0 853.1 -0.6 71
2019-06-06 03:00:00 5.6 0 Calma 11 Norte 0 853.3 -0.1 69
2019-06-06 02:00:00 5.6 3 Norte 15 Nordeste 0 853.2 -0.2 68
2019-06-06 01:00:00 6.2 4 Norte 17 Norte 0 853.7 0.3 62
2019-06-06 00:00:00 6.8 9 Norte 19 Norte 0 853.4 0.3 57
2019-06-05 23:00:00 6.8 8 Norte 18 Norte 0 853.4 0.6 53
2019-06-05 22:00:00 8.2 0 Calma 8 Norte 0 853.4 1.1 47
2019-06-05 21:00:00 10.2 0 Calma 22 Noroeste 0 853.1 0.8 41
2019-06-05 20:00:00 11.7 7 Oeste 28 Oeste 0 852.8 0.3 39
2019-06-05 19:00:00 14 10 Oeste 28 Oeste 0 852.3 0.2 41
2019-06-05 18:00:00 14.1 8 Oeste 21 Noroeste 0 852.3 -0.3 42
2019-06-05 17:00:00 10.7 9 Oeste 30 Norte 0 852.5 -0.2 46
2019-06-05 16:00:00 11.9 10 Noroeste 28 Noroeste 0 852.1 -0.1 51
2019-06-05 15:00:00 8.4 4 Norte 30 Sudoeste 0 852.6 0.9 67
2019-06-05 14:00:00 9.3 6 Noroeste 31 Noroeste 0 852.7 1.5 72
2019-06-05 13:00:00 6.8 7 Noroeste 28 Noroeste 0 852.2 1.7 83
2019-06-05 12:00:00 5.6 6 Norte 28 Noroeste 0 851.7 1.7 93
2019-06-05 11:00:00 4.3 9 Noroeste 31 Norte 0 851.2 2.2 99
2019-06-05 10:00:00 3.9 8 Noroeste 35 Oeste 1.8 850.5 1.8 99
2019-06-05 09:00:00 3.7 8 Noroeste 32 Norte 3.6 850 1.1 99
2019-06-05 08:00:00 4 9 Noroeste 31 Noroeste 1.2 849 -0.1 99
2019-06-05 07:00:00 4.3 5 Norte 24 Noroeste 0.2 848.7 -0.4 99
2019-06-05 06:00:00 5.1 6 Norte 23 Norte 0.2 848.9 -0.5 99
2019-06-05 05:00:00 6.4 5 Norte 31 Norte 0 849.1 -0.7 89
2019-06-05 04:00:00 8.8 5 Noroeste 31 Oeste 0 849.1 -1 81
2019-06-05 03:00:00 9.7 2 Norte 17 Oeste 0 849.4 -1.1 83
2019-06-05 02:00:00 10.6 2 Norte 13 Norte 0 849.8 -1.3 85
2019-06-05 01:00:00 11 3 Norte 16 Este 0 850.1 -1 85
2019-06-05 00:00:00 10.9 3 Norte 23 Nordeste 0 850.5 -0.6 85
2019-06-04 23:00:00 11.6 0 Calma 21 Norte 0 851.1 0.5 80
2019-06-04 22:00:00 13.5 2 Norte 28 Noroeste 0 851.1 0.5 71
2019-06-04 21:00:00 15.1 8 Noroeste 27 Noroeste 0 851.1 0.1 58
2019-06-04 20:00:00 17.8 8 Oeste 23 Oeste 0 850.6 -0.5 52
2019-06-04 19:00:00 18.5 9 Oeste 21 Sudoeste 0 850.6 -0.8 50
2019-06-04 18:00:00 20 6 Oeste 28 Sur 0 851 -0.7 49
2019-06-04 17:00:00 19 10 Sur 35 Sur 0 851.1 -0.9 48
2019-06-04 16:00:00 19.1 18 Sur 36 Sur 0 851.4 -1.3 47
2019-06-04 15:00:00 19.6 17 Sur 40 Sur 0 851.7 -1.1 46
2019-06-04 14:00:00 20.3 21 Sur 36 Sur 0 852 -0.7 46
2019-06-04 13:00:00 19.6 17 Sur 32 Sur 0 852.7 -0.6 48
2019-06-04 12:00:00 18.6 17 Sur 30 Sur 0 852.8 -0.5 52
2019-06-04 11:00:00 17.4 15 Sur 28 Sur 0 852.7 -0.4 54
2019-06-04 10:00:00 15.7 16 Sur 30 Sur 0 853.3 0.4 56
2019-06-04 09:00:00 14.2 9 Sur 16 Sur 0 853.3 0.4 55
2019-06-04 08:00:00 10.8 6 Sur 16 Sur 0 853.1 -0.4 54
2019-06-04 07:00:00 12.1 10 Sur 17 Sur 0 852.9 -0.9 48
2019-06-04 06:00:00 13.6 7 Sur 13 Sudeste 0 852.9 -1.8 46
2019-06-04 05:00:00 13.8 4 Sur 20 Sudeste 0 853.5 -2 46
2019-06-04 04:00:00 14.8 5 Sur 15 Sur 0 853.8 -2.3 43
2019-06-04 03:00:00 15.5 4 Sudeste 14 Sudeste 0 854.7 -2 45
2019-06-04 02:00:00 14.2 3 Sur 9 Sudeste 0 855.5 -1.2 42
2019-06-04 01:00:00 14.2 0 Calma 11 Sudeste 0 856.1 -0.2 42
2019-06-04 00:00:00 14.5 0 Calma 9 Este 0 856.7 0.4 41
2019-06-03 23:00:00 15.6 3 Este 17 Sudeste 0 856.7 0.5 38
2019-06-03 22:00:00 17.8 7 Sudeste 13 Sudeste 0 856.3 -0.1 34
2019-06-03 21:00:00 20.4 6 Sudeste 26 Sur 0 856.3 -0.2 33
2019-06-03 20:00:00 23.7 12 Sudoeste 28 Sudoeste 0 856.2 -0.6 28
2019-06-03 19:00:00 25.1 7 Oeste 27 Sur 0 856.4 -0.9 26
2019-06-03 18:00:00 24.8 10 Sur 26 Sur 0 856.5 -1.4 37
2019-06-03 17:00:00 23.7 11 Sur 31 Sudoeste 0 856.8 -1.5 37
2019-06-03 16:00:00 23.5 16 Sur 32 Sur 0 857.3 -1.4 38
2019-06-03 15:00:00 24.3 10 Sur 28 Sur 0 857.9 -0.9 41
2019-06-03 14:00:00 23.5 12 Sur 26 Sur 0 858.3 -0.2 42
2019-06-03 13:00:00 22.3 11 Sur 23 Sur 0 858.7 0.1 45
2019-06-03 12:00:00 21.5 10 Sur 22 Sur 0 858.8 0.4 49
2019-06-03 11:00:00 20.3 4 Sur 11 Sur 0 858.5 0.3 49
2019-06-03 10:00:00 17.7 0 Calma 9 Noroeste 0 858.6 0 53
2019-06-03 09:00:00 16.7 3 Sur 13 Noroeste 0 858.4 0.2 55
2019-06-03 08:00:00 14.3 5 Sur 8 Sur 0 858.2 -0.2 56
2019-06-03 07:00:00 12.1 0 Calma 5 Norte 0 858.6 0.2 57
2019-06-03 06:00:00 13.2 2 Norte 11 Norte 0 858.2 -0.9 54
2019-06-03 05:00:00 14.1 4 Norte 14 Nordeste 0 858.4 -0.7 53
2019-06-03 04:00:00 14.2 0 Calma 11 Norte 0 858.4 -0.8 53
2019-06-03 03:00:00 14 2 Norte 8 Norte 0 859.1 -0.6 53
2019-06-03 02:00:00 14.2 3 Norte 6 Norte 0 859.1 -0.6 53
2019-06-03 01:00:00 14.4 2 Norte 9 Noroeste 0 859.2 -0.5 53
2019-06-03 00:00:00 15 0 Calma 5 Nordeste 0 859.7 0.8 55
2019-06-02 23:00:00 15.4 0 Calma 6 Noroeste 0 859.7 0.8 55
2019-06-02 22:00:00 16.2 3 Norte 21 Oeste 0 859.7 0.9 60
2019-06-02 21:00:00 15.8 9 Este 45 Sudoeste 2.4 858.9 -0.1 66
2019-06-02 20:00:00 21.4 2 Sudeste 9 Sur 0 858.9 -0.4 45
2019-06-02 19:00:00 22.5 5 Sur 15 Sur 0 858.8 -1 41
2019-06-02 18:00:00 24.1 4 Sur 13 Sur 0 859 -1 38
2019-06-02 17:00:00 24.2 3 Sur 23 Sur 0 859.3 -1.2 35
2019-06-02 16:00:00 24.3 6 Sur 21 Sur 0 859.8 -1.1 38
2019-06-02 15:00:00 24.8 8 Sudoeste 26 Sur 0 860 -0.9 36
2019-06-02 14:00:00 23.1 4 Oeste 27 Sudoeste 0 860.5 -0.2 38
2019-06-02 13:00:00 23.9 7 Noroeste 19 Sudoeste 0 860.9 0.3 40
2019-06-02 12:00:00 23.6 2 Nordeste 11 Norte 0 860.9 0.6 42
2019-06-02 11:00:00 22.3 3 Noroeste 13 Norte 0 860.7 0.3 45
2019-06-02 10:00:00 19.6 2 Sudeste 9 Sudeste 0 860.6 0.2 49
2019-06-02 09:00:00 16.1 6 Sur 10 Sur 0 860.3 0.1 53
2019-06-02 08:00:00 12.3 5 Sudeste 14 Sur 0 860.4 0 56
2019-06-02 07:00:00 11.4 6 Sur 14 Sur 0 860.4 -0.1 56
2019-06-02 06:00:00 12 11 Sur 16 Sur 0 860.2 -0.3 52
2019-06-02 05:00:00 13.7 8 Sur 15 Sur 0 860.4 -0.1 49
2019-06-02 04:00:00 14.1 8 Sur 14 Sur 0 860.5 -0.1 46
2019-06-02 03:00:00 15 6 Sur 13 Sur 0 860.5 -0.3 42
2019-06-02 02:00:00 15.3 3 Sudeste 7 Este 0 860.5 -0.2 45
2019-06-02 01:00:00 16.4 4 Sudeste 13 Sudeste 0 860.6 0.1 42
2019-06-02 00:00:00 17 5 Sur 12 Sudeste 0 860.8 0.7 42
2019-06-01 23:00:00 17.6 3 Sudeste 11 Sudeste 0 860.7 0.7 42
2019-06-01 22:00:00 18.5 4 Sudeste 8 Sudeste 0 860.5 0.5 42
2019-06-01 21:00:00 22.4 3 Sur 15 Sudoeste 0 860.1 -0.3 37
2019-06-01 20:00:00 24.6 9 Sur 18 Sur 0 860 -0.8 32
2019-06-01 19:00:00 25.9 5 Sur 15 Sur 0 860 -1.4 28
2019-06-01 18:00:00 27 3 Norte 18 Noroeste 0 860.4 -1.3 29
2019-06-01 17:00:00 26.4 0 Calma 20 Sur 0 860.8 -1.3 34
2019-06-01 16:00:00 25.1 4 Sudoeste 23 Sudeste 0 861.4 -1 34
2019-06-01 15:00:00 23.9 6 Sudeste 18 Sudoeste 0 861.7 -0.6 36
2019-06-01 14:00:00 22.6 10 Sur 22 Sur 0 862.1 -0.3 42
2019-06-01 13:00:00 21.7 10 Sur 19 Sudeste 0 862.4 0.1 42
2019-06-01 12:00:00 20.1 9 Sur 17 Sur 0 862.3 0 48
2019-06-01 11:00:00 18.4 11 Sur 17 Sur 0 862.4 0 48
2019-06-01 10:00:00 16.8 9 Sur 14 Sur 0 862.3 0.2 51
2019-06-01 09:00:00 15.4 6 Sur 11 Sur 0 862.3 0.4 53
2019-06-01 08:00:00 11.4 6 Sur 9 Sudeste 0 862.4 0.4 58
2019-06-01 07:00:00 10.4 7 Sur 12 Sur 0 862.1 -0.4 57
2019-06-01 06:00:00 11.6 9 Sur 16 Sudeste 0 861.9 -0.4 50
2019-06-01 05:00:00 13.7 8 Sudeste 17 Sudeste 0 862 -0.5 46
2019-06-01 04:00:00 13.8 9 Sudeste 16 Sudeste 0 862.5 -0.1 45
2019-06-01 03:00:00 13.9 6 Sur 18 Sudeste 0 862.3 -0.5 45
2019-06-01 02:00:00 16.1 6 Sudeste 19 Sudeste 0 862.5 -0.1 38
2019-06-01 01:00:00 16.1 5 Sudeste 14 Sudeste 0 862.6 0.2 37
2019-06-01 00:00:00 16 4 Sur 16 Sudeste 0 862.8 0.9 37
2019-05-31 23:00:00 16.6 4 Sudeste 13 Sudeste 0 862.6 0.8 38
2019-05-31 22:00:00 17.2 5 Sur 9 Sur 0 862.4 0.4 39
2019-05-31 21:00:00 22.9 0 Calma 4 Noroeste 0 861.9 -0.4 30
2019-05-31 20:00:00 24.7 2 Norte 15 Noroeste 0 861.8 -0.9 27
2019-05-31 19:00:00 25.6 4 Norte 14 Noroeste 0 862 -1 28
2019-05-31 18:00:00 26.1 3 Norte 18 Norte 0 862.3 -1 28
2019-05-31 17:00:00 25.9 5 Sudoeste 19 Oeste 0 862.7 -0.9 28
2019-05-31 16:00:00 24.8 3 Norte 15 Norte 0 863 -0.8 30
2019-05-31 15:00:00 24.8 4 Norte 18 Norte 0 863.3 -0.6 33
2019-05-31 14:00:00 22.6 5 Norte 17 Noroeste 0 863.6 -0.4 33
2019-05-31 13:00:00 22 4 Sudoeste 14 Sudoeste 0 863.8 -0.2 38
2019-05-31 12:00:00 19.6 5 Sur 15 Sur 0 863.9 0 40
2019-05-31 11:00:00 18.2 9 Sur 18 Sur 0 864 0.3 45
2019-05-31 10:00:00 16.4 9 Sur 17 Sur 0 864 0.4 46
2019-05-31 09:00:00 16.1 6 Sur 9 Sur 0 863.9 0.3 48
2019-05-31 08:00:00 11.5 5 Sudeste 12 Sudeste 0 863.7 0.1 52
2019-05-31 07:00:00 10.3 6 Sudeste 13 Sudeste 0 863.6 -0.5 54
2019-05-31 06:00:00 10.4 6 Sur 18 Sudeste 0 863.6 -0.9 51
2019-05-31 05:00:00 10.3 5 Sur 17 Sudeste 0 863.6 -1 50
2019-05-31 04:00:00 12.9 10 Sudeste 20 Sur 0 864.1 -0.8 45
2019-05-31 03:00:00 13.6 10 Sudeste 16 Sudeste 0 864.5 -0.3 45
2019-05-31 02:00:00 11.8 4 Sur 11 Sudeste 0 864.6 0.1 46
2019-05-31 01:00:00 12.3 4 Sur 9 Sur 0 864.9 1.2 46
2019-05-31 00:00:00 12 0 Calma 9 Oeste 0 864.8 1.2 45
2019-05-30 23:00:00 13.9 0 Calma 10 Sur 0 864.5 1 42
2019-05-30 22:00:00 15.5 0 Calma 7 Este 0 863.7 0.2 40
2019-05-30 21:00:00 19.2 3 Norte 11 Norte 0 863.6 -0.2 31
2019-05-30 20:00:00 22.3 3 Noroeste 23 Norte 0 863.5 -0.5 27
2019-05-30 19:00:00 23.4 5 Noroeste 21 Norte 0 863.5 -0.6 27
2019-05-30 18:00:00 23.2 8 Norte 30 Noroeste 0 863.8 -0.4 26
2019-05-30 17:00:00 22.6 7 Norte 28 Noroeste 0 864 -0.5 26
2019-05-30 16:00:00 22.5 8 Norte 26 Noroeste 0 864.1 -0.3 30
2019-05-30 15:00:00 21.6 8 Norte 24 Norte 0 864.2 -0.2 32
2019-05-30 14:00:00 21.4 5 Norte 25 Noroeste 0 864.5 0.2 36
2019-05-30 13:00:00 19.4 6 Norte 24 Noroeste 0 864.4 -0.1 40
2019-05-30 12:00:00 17.5 8 Norte 29 Norte 0 864.4 0.4 50
2019-05-30 11:00:00 15.5 7 Norte 18 Nordeste 0 864.3 0.7 56
2019-05-30 10:00:00 13.5 5 Norte 13 Norte 0 864.5 1.2 56
2019-05-30 09:00:00 10.6 3 Norte 9 Norte 0 864 0.4 63
2019-05-30 08:00:00 7.3 3 Norte 10 Este 0 863.6 0.3 69
2019-05-30 07:00:00 5.9 4 Norte 11 Norte 0 863.3 0 68
2019-05-30 06:00:00 6.6 2 Nordeste 8 Nordeste 0 863.6 0.2 68
2019-05-30 05:00:00 6.8 0 Calma 9 Norte 0 863.3 -0.2 66
2019-05-30 04:00:00 6.9 4 Norte 9 Nordeste 0 863.3 -0.5 67
2019-05-30 03:00:00 7 0 Calma 12 Este 0 863.4 0.4 68
2019-05-30 02:00:00 6.7 3 Nordeste 9 Este 0 863.5 0.3 68
2019-05-30 01:00:00 7 2 Sur 24 Noroeste 0 863.8 0.8 68
2019-05-30 00:00:00 8.6 6 Norte 22 Noroeste 0 863 0.2 64
2019-05-29 23:00:00 9.2 7 Norte 25 Norte 0 863.2 1.1 62
2019-05-29 22:00:00 10.5 8 Norte 27 Noroeste 0 863 1 64
2019-05-29 21:00:00 13.6 9 Norte 30 Norte 0 862.8 1 52
2019-05-29 20:00:00 16.4 10 Norte 31 Norte 0 862.1 0.2 47
2019-05-29 19:00:00 17.9 9 Norte 30 Noroeste 0 862 0.3 46
2019-05-29 18:00:00 17.6 11 Norte 33 Norte 0 861.8 0 46
2019-05-29 17:00:00 17.7 12 Norte 32 Norte 0 861.9 0 46
2019-05-29 16:00:00 16.3 12 Norte 35 Noroeste 0 861.7 -0.3 50
2019-05-29 15:00:00 15.9 10 Norte 29 Norte 0 861.8 0.2 54
2019-05-29 14:00:00 14.3 12 Norte 34 Norte 0 861.9 0.6 57
2019-05-29 13:00:00 12.5 13 Norte 36 Norte 0 862 1.1 61
2019-05-29 12:00:00 10.5 13 Norte 39 Noroeste 0 861.6 1.1 65
2019-05-29 11:00:00 8.6 13 Norte 36 Noroeste 0 861.3 1 70
2019-05-29 10:00:00 7.7 11 Norte 39 Norte 0 860.9 1 73
2019-05-29 09:00:00 5.8 10 Norte 35 Norte 0 860.5 0.7 80
2019-05-29 08:00:00 2.2 13 Norte 32 Noroeste 0 860.3 0.8 93
2019-05-29 07:00:00 1.9 10 Norte 27 Norte 0 859.9 0.3 93
2019-05-29 06:00:00 2.2 11 Norte 39 Noroeste 0 859.8 0.5 90
2019-05-29 05:00:00 3 10 Norte 35 Noroeste 0 859.5 0.2 87
2019-05-29 04:00:00 3.2 11 Norte 32 Noroeste 0 859.6 0.5 84
2019-05-29 03:00:00 3.9 7 Noroeste 41 Norte 0 859.3 0.2 76
2019-05-29 02:00:00 4.4 7 Norte 31 Norte 0 859.3 0.3 76
2019-05-29 01:00:00 5.2 7 Norte 30 Noroeste 0 859.1 0.4 73
2019-05-29 00:00:00 5.9 9 Norte 31 Norte 0 859.1 0.8 69
2019-05-28 23:00:00 7 8 Norte 27 Norte 0 859 1.3 70
2019-05-28 22:00:00 8.2 7 Norte 31 Norte 0 858.7 1.1 64
2019-05-28 21:00:00 10 12 Norte 40 Noroeste 0 858.3 0.6 52
2019-05-28 20:00:00 12.3 13 Norte 38 Noroeste 0 857.7 0.6 45
2019-05-28 19:00:00 13.6 17 Norte 45 Norte 0 857.6 0.6 42
2019-05-28 18:00:00 14.5 15 Norte 44 Noroeste 0 857.7 0.6 42
2019-05-28 17:00:00 14.7 16 Norte 43 Noroeste 0 857.1 0.2 40
2019-05-28 16:00:00 15.3 14 Norte 35 Noroeste 0 857 0.1 37
2019-05-28 15:00:00 14.7 11 Norte 35 Norte 0 857.1 0.4 37
2019-05-28 14:00:00 14.6 8 Norte 32 Norte 0 856.9 0.2 40
2019-05-28 13:00:00 12.5 8 Norte 30 Norte 0 856.9 0.5 50
2019-05-28 12:00:00 10.2 10 Norte 31 Noroeste 0 856.7 1.1 59
2019-05-28 11:00:00 8.3 12 Norte 28 Noroeste 0 856.7 1.5 82
2019-05-28 10:00:00 7.5 9 Norte 28 Noroeste 0 856.4 1.5 86
2019-05-28 09:00:00 5.9 8 Norte 29 Norte 0 855.6 1.4 93
2019-05-28 08:00:00 4.7 9 Norte 25 Norte 0 855.2 1 99
2019-05-28 07:00:00 4.8 7 Norte 22 Norte 0 854.9 0.3 99
2019-05-28 06:00:00 5.3 6 Norte 18 Norte 0 854.2 -0.3 98
2019-05-28 05:00:00 5.3 5 Norte 16 Noroeste 0 854.2 -0.7 98
2019-05-28 04:00:00 5.5 4 Norte 13 Nordeste 0 854.6 -0.7 96
2019-05-28 03:00:00 6.1 4 Norte 14 Norte 0 854.5 -0.8 93
2019-05-28 02:00:00 6.6 5 Norte 12 Norte 0 854.9 -0.4 89
2019-05-28 01:00:00 8 5 Norte 16 Norte 0 855.3 0.5 83
2019-05-28 00:00:00 9.4 6 Norte 18 Norte 0 855.3 0.8 75
2019-05-27 23:00:00 10.3 0 Calma 20 Norte 0 855.3 0.9 70
2019-05-27 22:00:00 12.1 5 Norte 18 Norte 0 854.8 0.5 62
2019-05-27 21:00:00 14 8 Norte 27 Norte 0 854.5 0 54
2019-05-27 20:00:00 16.4 10 Norte 34 Noroeste 0 854.4 -0.3 49
2019-05-27 19:00:00 17.8 8 Norte 31 Nordeste 0 854.3 -0.7 49
2019-05-27 18:00:00 18.6 9 Norte 30 Noroeste 0 854.5 -0.7 47
2019-05-27 17:00:00 19.1 8 Norte 29 Noroeste 0 854.7 -0.8 49
2019-05-27 16:00:00 17.4 9 Norte 33 Norte 0 855 -0.8 49
2019-05-27 15:00:00 19 8 Norte 30 Nordeste 0 855.2 -0.8 49
2019-05-27 14:00:00 17.1 5 Norte 30 Nordeste 0 855.5 -0.6 49
2019-05-27 13:00:00 16.8 9 Norte 22 Norte 0 855.8 -0.2 53
2019-05-27 12:00:00 15.6 6 Norte 23 Nordeste 0 856 0.1 59
2019-05-27 11:00:00 13.9 8 Norte 23 Norte 0 856.1 0.1 65
2019-05-27 10:00:00 10.4 8 Norte 22 Norte 0 856 0.2 73
2019-05-27 09:00:00 9 4 Norte 18 Nordeste 0 855.9 0.4 81
2019-05-27 08:00:00 7.5 5 Norte 11 Norte 0 856 0.2 88
2019-05-27 07:00:00 7.6 3 Norte 9 Norte 0 855.8 -0.1 86
2019-05-27 06:00:00 7.4 3 Norte 11 Norte 0 855.5 -1.4 86
2019-05-27 05:00:00 7.6 3 Norte 11 Norte 0 855.8 -1.3 85
2019-05-27 04:00:00 8 3 Nordeste 10 Nordeste 0 855.9 -1.4 87
2019-05-27 03:00:00 7.5 0 Calma 10 Norte 0 856.9 -0.7 89
2019-05-27 02:00:00 8 0 Calma 14 Noroeste 0 857.1 -0.9 84
2019-05-27 01:00:00 8.3 3 Norte 17 Norte 0 857.3 -0.7 83
2019-05-27 00:00:00 8.9 3 Norte 19 Norte 0 857.6 -0.2 80
2019-05-26 23:00:00 9.5 2 Norte 17 Nordeste 0 858 0.3 75
2019-05-26 22:00:00 10.8 4 Norte 19 Noroeste 0 858 0.4 67
2019-05-26 21:00:00 13.9 3 Noroeste 24 Noroeste 0 857.8 0.1 55
2019-05-26 20:00:00 16.2 9 Norte 31 Norte 0 857.7 -0.3 48
2019-05-26 19:00:00 17.7 9 Norte 33 Noroeste 0 857.6 -0.4 48
2019-05-26 18:00:00 18 8 Norte 40 Norte 0 857.7 -0.5 49
2019-05-26 17:00:00 17.7 10 Norte 36 Norte 0 858 -0.6 49
2019-05-26 16:00:00 16.6 12 Norte 36 Norte 0 858 -0.8 49
2019-05-26 15:00:00 15.9 13 Norte 38 Norte 0 858.2 -0.5 48
2019-05-26 14:00:00 14.5 11 Norte 35 Nordeste 0 858.6 0.1 54
2019-05-26 13:00:00 12.4 11 Norte 33 Nordeste 0 858.8 0 60
2019-05-26 12:00:00 10.2 13 Norte 35 Norte 0 858.7 0.1 66
2019-05-26 11:00:00 9 12 Norte 33 Norte 0 858.5 -0.2 67
2019-05-26 10:00:00 7.1 12 Norte 28 Norte 0 858.8 0.1 74
2019-05-26 09:00:00 4.8 9 Norte 22 Noroeste 0 858.6 0.1 91
2019-05-26 08:00:00 2.5 4 Norte 17 Noroeste 0 858.7 0.2 98
2019-05-26 07:00:00 2.1 4 Norte 15 Nordeste 0 858.7 -0.1 97
2019-05-26 06:00:00 2.4 4 Norte 12 Norte 0 858.5 -0.1 98
2019-05-26 05:00:00 2.7 5 Nordeste 15 Norte 0 858.5 -0.6 97
2019-05-26 04:00:00 3.1 5 Norte 22 Noroeste 0 858.8 -0.4 96
2019-05-26 03:00:00 3.7 8 Norte 25 Noroeste 0 858.6 -0.7 94
2019-05-26 02:00:00 4.2 9 Norte 28 Noroeste 0 859.1 -0.5 93
2019-05-26 01:00:00 5.3 8 Norte 24 Norte 0 859.2 -0.2 91
2019-05-26 00:00:00 5.3 6 Norte 18 Norte 0 859.3 0.3 90
2019-05-25 23:00:00 6.6 4 Norte 15 Nordeste 0 859.6 0.8 82
2019-05-25 22:00:00 8.7 5 Norte 25 Noroeste 0 859.4 0.7 71
2019-05-25 21:00:00 11 5 Norte 28 Norte 0 859 0.7 59
2019-05-25 20:00:00 14.1 10 Norte 31 Norte 0 858.8 0.3 51
2019-05-25 19:00:00 15.1 8 Norte 29 Noroeste 0 858.7 0.3 45
2019-05-25 18:00:00 16.4 6 Norte 25 Noroeste 0 858.3 -0.4 43
2019-05-25 17:00:00 15.9 9 Norte 37 Nordeste 0 858.5 -0.5 45
2019-05-25 16:00:00 15.2 8 Norte 28 Norte 0 858.4 -0.6 46
2019-05-25 15:00:00 15.1 9 Norte 30 Norte 0 858.7 -0.3 51
2019-05-25 14:00:00 13 11 Norte 28 Norte 0 859 0.1 54
2019-05-25 13:00:00 11.4 11 Norte 29 Norte 0 859 0.3 61
2019-05-25 12:00:00 8.8 8 Norte 30 Norte 0 859 1.2 70
2019-05-25 11:00:00 7.5 10 Norte 28 Norte 0 858.9 1 76
2019-05-25 10:00:00 5.6 8 Norte 33 Noroeste 0 858.7 1.1 93
2019-05-25 09:00:00 4.8 8 Noroeste 28 Noroeste 0 857.8 0.4 97
2019-05-25 08:00:00 4.4 4 Norte 23 Norte 0 857.9 0.4 99
2019-05-25 07:00:00 4.3 6 Norte 24 Noroeste 0 857.6 0.1 99
2019-05-25 06:00:00 4.3 5 Norte 19 Noroeste 0 857.4 0.2 99
2019-05-25 05:00:00 4.3 4 Norte 19 Norte 0 857.5 0 99
2019-05-25 04:00:00 4.5 6 Norte 26 Noroeste 0 857.5 -0.2 98
2019-05-25 03:00:00 4.5 10 Norte 29 Norte 0 857.2 -0.4 98
2019-05-25 02:00:00 4.9 6 Norte 23 Norte 0 857.5 0.2 95
2019-05-25 01:00:00 4.7 6 Norte 20 Noroeste 0 857.7 1.4 95
2019-05-25 00:00:00 5.5 5 Norte 25 Norte 0 857.6 1.8 91
2019-05-24 23:00:00 5.9 8 Norte 31 Noroeste 0 857.3 1.6 87
2019-05-24 22:00:00 6.2 8 Norte 38 Noroeste 0 856.3 0.9 76
2019-05-24 21:00:00 8.3 10 Norte 44 Norte 0 855.8 0.2 63
2019-05-24 20:00:00 10 14 Norte 39 Norte 0 855.7 0.3 59
2019-05-24 19:00:00 12.2 13 Norte 34 Noroeste 0 855.4 -0.2 52
2019-05-24 18:00:00 14.1 13 Norte 39 Noroeste 0 855.6 -0.1 47
2019-05-24 17:00:00 14.5 10 Norte 32 Noroeste 0 855.4 -0.3 47
2019-05-24 16:00:00 14 11 Norte 36 Noroeste 0.2 855.6 -0.3 49
2019-05-24 15:00:00 12.7 11 Norte 34 Norte 0 855.7 -0.2 54
2019-05-24 14:00:00 11.3 7 Norte 27 Noroeste 0 855.7 0.1 74
2019-05-24 13:00:00 10.5 8 Norte 23 Nordeste 0.2 855.9 0.1 98
2019-05-24 12:00:00 8 4 Norte 15 Noroeste 0.2 855.9 0.7 99
2019-05-24 11:00:00 8 4 Norte 14 Noroeste 0 855.6 1 99
2019-05-24 10:00:00 7.5 4 Norte 14 Norte 0.4 855.8 1 99
2019-05-24 09:00:00 7.5 4 Norte 20 Norte 0 855.2 0.4 99
2019-05-24 08:00:00 7.4 3 Norte 31 Noroeste 0 854.6 -0.4 99
2019-05-24 07:00:00 8.5 6 Noroeste 14 Norte 0 854.8 0 93
2019-05-24 06:00:00 8.3 3 Norte 19 Noroeste 0 854.8 -0.6 95
2019-05-24 05:00:00 8.4 5 Norte 19 Norte 0 855 -0.8 93
2019-05-24 04:00:00 9.9 3 Norte 16 Nordeste 0 854.8 -1.4 76
2019-05-24 03:00:00 10.4 2 Norte 21 Noroeste 0 855.4 -1.1 69
2019-05-24 02:00:00 11.6 4 Norte 23 Noroeste 0 855.8 -0.7 64
2019-05-24 01:00:00 12.2 7 Norte 21 Norte 0 856.2 0.2 60
2019-05-24 00:00:00 13.5 5 Norte 27 Noroeste 0 856.5 0.2 56
2019-05-23 23:00:00 13.6 3 Norte 12 Norte 0 856.5 0.7 67
2019-05-23 22:00:00 14.5 4 Norte 19 Noroeste 0 856 0.1 58
2019-05-23 21:00:00 16.2 5 Noroeste 18 Noroeste 0 856.3 0 48
2019-05-23 20:00:00 19.7 6 Oeste 15 Oeste 0 855.8 -0.9 40
2019-05-23 19:00:00 18.7 6 Sur 14 Sudoeste 0 855.9 -1.3 50
2019-05-23 18:00:00 17.7 5 Sur 14 Sur 0 856.3 -1.3 52
2019-05-23 17:00:00 17.8 7 Sur 29 Sur 0 856.7 -1.3 52
2019-05-23 16:00:00 16.9 9 Sur 20 Sur 0 857.2 -1 53
2019-05-23 15:00:00 18.2 8 Sudeste 19 Sur 0 857.6 -0.8 46
2019-05-23 14:00:00 17.8 5 Sur 17 Oeste 0 858 -0.1 48
2019-05-23 13:00:00 17.9 4 Sur 13 Sur 0 858.2 0 47
2019-05-23 12:00:00 16.8 6 Sur 15 Sudoeste 0 858.4 0.4 45
2019-05-23 11:00:00 16.6 6 Sur 12 Sur 0 858.1 0.3 49
2019-05-23 10:00:00 15.6 3 Norte 8 Nordeste 0 858.2 0.6 58
2019-05-23 09:00:00 14.2 0 Calma 6 Norte 0 858 0.7 60
2019-05-23 08:00:00 10.7 2 Norte 11 Este 0 857.8 0.5 63
2019-05-23 07:00:00 9.5 3 Norte 8 Norte 0 857.6 -0.1 60
2019-05-23 06:00:00 10 3 Norte 10 Nordeste 0 857.3 -0.4 57
2019-05-23 05:00:00 10.1 0 Calma 5 Nordeste 0 857.3 -0.4 57
2019-05-23 04:00:00 10.7 0 Calma 6 Este 0 857.7 -0.4 56
2019-05-23 03:00:00 10.3 0 Calma 5 Este 0 857.7 -0.5 56
2019-05-23 02:00:00 11.2 0 Calma 6 Norte 0 857.7 -0.5 53
2019-05-23 01:00:00 10.5 3 Norte 6 Norte 0 858.1 0.5 54
2019-05-23 00:00:00 11.2 2 Norte 8 Norte 0 858.2 0.6 52
2019-05-22 23:00:00 11.9 3 Norte 6 Norte 0 858.2 0.6 49
2019-05-22 22:00:00 13.8 0 Calma 5 Norte 0 857.6 -0.1 46
2019-05-22 21:00:00 17.7 0 Calma 6 Oeste 0 857.6 0.1 38
2019-05-22 20:00:00 18.3 4 Oeste 15 Sudoeste 0 857.6 0 37
2019-05-22 19:00:00 19 5 Oeste 21 Oeste 0 857.7 -0.2 35
2019-05-22 18:00:00 20 4 Norte 18 Sudoeste 0 857.5 -0.7 35
2019-05-22 17:00:00 20 4 Noroeste 21 Norte 0 857.6 -0.5 36
2019-05-22 16:00:00 20.7 3 Oeste 27 Sudoeste 0 857.9 -0.6 37
2019-05-22 15:00:00 19 4 Noroeste 28 Noroeste 0 858.2 -0.1 38
2019-05-22 14:00:00 18.1 6 Norte 24 Noroeste 0 858.1 0.1 40
2019-05-22 13:00:00 18 5 Norte 17 Norte 0 858.5 0.8 42
2019-05-22 12:00:00 16.4 6 Norte 18 Norte 0 858.3 0.9 42
2019-05-22 11:00:00 15.8 3 Norte 13 Noroeste 0 858 0.8 48
2019-05-22 10:00:00 14.4 3 Norte 8 Noroeste 0 857.7 0.5 43
2019-05-22 09:00:00 13.1 0 Calma 6 Nordeste 0 857.4 0.6 54
2019-05-22 08:00:00 7.2 0 Calma 5 Nordeste 0 857.2 0.3 72
2019-05-22 07:00:00 6.4 3 Sur 5 Sur 0 857.2 0.3 74
2019-05-22 06:00:00 6.1 0 Calma 8 Sur 0 856.8 0.1 75
2019-05-22 05:00:00 7 5 Sudeste 9 Sur 0 856.9 0 73
2019-05-22 04:00:00 7.2 5 Sur 9 Sur 0 856.9 0.1 71
2019-05-22 03:00:00 7.7 5 Sur 11 Sur 0 856.7 -0.2 68
2019-05-22 02:00:00 8.5 6 Sur 10 Sudeste 0 856.9 0 66
2019-05-22 01:00:00 7.6 0 Calma 7 Nordeste 0 856.8 0.5 66
2019-05-22 00:00:00 8.7 2 Norte 9 Norte 0 856.9 1.1 63
2019-05-21 23:00:00 9.1 0 Calma 7 Norte 0 856.9 1.6 59
2019-05-21 22:00:00 10.8 2 Nordeste 5 Norte 0 856.3 1 52
2019-05-21 21:00:00 14.3 0 Calma 10 Noroeste 0 855.8 0.5 46
2019-05-21 20:00:00 16.6 3 Noroeste 14 Norte 0 855.3 -0.1 42
2019-05-21 19:00:00 16.8 4 Noroeste 14 Noroeste 0 855.3 0.1 42
2019-05-21 18:00:00 15.2 2 Sur 9 Sur 0 855.3 0.2 45
2019-05-21 17:00:00 14.9 0 Calma 9 Sudoeste 0 855.4 0.1 45
2019-05-21 16:00:00 14.6 2 Norte 12 Norte 0 855.2 0 49
2019-05-21 15:00:00 15.2 2 Sudoeste 9 Oeste 0 855.1 0.1 46
2019-05-21 14:00:00 14.6 4 Noroeste 19 Noroeste 0 855.3 0.3 49
2019-05-21 13:00:00 13.7 3 Norte 15 Norte 0 855.2 0.6 56
2019-05-21 12:00:00 11.3 5 Norte 14 Norte 0 855 0.5 64
2019-05-21 11:00:00 9.4 4 Norte 14 Norte 0 855 0.9 70
2019-05-21 10:00:00 8.6 4 Norte 10 Noroeste 0 854.6 1.2 73
2019-05-21 09:00:00 7.5 2 Norte 10 Nordeste 0 854.5 1 73
2019-05-21 08:00:00 6.8 3 Nordeste 6 Norte 0 854.1 0.8 68
2019-05-21 07:00:00 6.1 0 Calma 13 Norte 0 853.4 0.1 63
2019-05-21 06:00:00 5.6 0 Calma 8 Norte 0 853.5 0.2 63
2019-05-21 05:00:00 5.9 0 Calma 8 Norte 0 853.3 -0.7 62
2019-05-21 04:00:00 6.1 0 Calma 13 Nordeste 0 853.3 -0.7 59
2019-05-21 03:00:00 6.6 2 Norte 10 Noroeste 0 853.3 -0.4 57
2019-05-21 02:00:00 6.8 2 Norte 11 Norte 0 854 0.5 57
2019-05-21 01:00:00 6.8 0 Calma 9 Norte 0 854 1 56
2019-05-21 00:00:00 7.7 0 Calma 6 Noroeste 0 853.7 1 54